Rochelle, Illinois
Current Conditions -  °F | °C
As of 3:15 PM on Saturday 22 Nov 2014 (Local Time) from KRPJ Reporting Station
Overcast Overcast  
Wind Chill: 43°   Ceiling: 2300
Heat Index: 47°   Visibility: 7mi
Dew Point: 45°   Wind: 10mph
Humidity: 92%   Direction: 200°SSW
Pressure: 29.85"   Gusts: NA
Location:  41.93°N, 89.07°W
Report Text: KRPJ 222115Z AUTO 20009KT 7SM BKN023 OVC029 09/07 A2985 RMK AO2 T00850073
Loading
Personal Weather Stations






























Interactive Weather Map New forecast layout! Learn more

10-Day Weather Forecast

Advertisements
Track Severe Weather on mobile